sensor_id;sensor_type;location;lat;lon;timestamp;pressure;altitude;pressure_sealevel;temperature;humidity
47366;BME280;33105;47.964;7.982;2023-05-22T00:02:55;96425.00;;;13.00;100.00
47366;BME280;33105;47.964;7.982;2023-05-22T00:10:10;96422.25;;;13.00;100.00
47366;BME280;33105;47.964;7.982;2023-05-22T00:13:33;96424.97;;;13.05;100.00
47366;BME280;33105;47.964;7.982;2023-05-22T00:16:35;96424.72;;;13.02;100.00
47366;BME280;33105;47.964;7.982;2023-05-22T00:19:37;96422.88;;;12.87;100.00
47366;BME280;33105;47.964;7.982;2023-05-22T00:22:40;96437.72;;;12.86;100.00
47366;BME280;33105;47.964;7.982;2023-05-22T00:25:52;96443.94;;;12.97;100.00
47366;BME280;33105;47.964;7.982;2023-05-22T00:29:26;96437.59;;;13.06;100.00
47366;BME280;33105;47.964;7.982;2023-05-22T00:33:29;96424.19;;;13.00;100.00
47366;BME280;33105;47.964;7.982;2023-05-22T00:41:40;96422.75;;;13.07;100.00
47366;BME280;33105;47.964;7.982;2023-05-22T00:45:17;96420.41;;;12.90;100.00
47366;BME280;33105;47.964;7.982;2023-05-22T00:49:08;96421.38;;;13.10;100.00
47366;BME280;33105;47.964;7.982;2023-05-22T00:52:19;96422.25;;;13.00;100.00
47366;BME280;33105;47.964;7.982;2023-05-22T00:56:06;96420.34;;;13.01;100.00
47366;BME280;33105;47.964;7.982;2023-05-22T00:59:33;96419.25;;;12.97;100.00
47366;BME280;33105;47.964;7.982;2023-05-22T01:03:19;96414.63;;;12.92;100.00
47366;BME280;33105;47.964;7.982;2023-05-22T01:06:29;96411.06;;;12.91;100.00
47366;BME280;33105;47.964;7.982;2023-05-22T01:09:44;96419.03;;;12.88;100.00
47366;BME280;33105;47.964;7.982;2023-05-22T01:18:18;96425.44;;;12.78;100.00
47366;BME280;33105;47.964;7.982;2023-05-22T01:26:41;96423.13;;;12.90;100.00
47366;BME280;33105;47.964;7.982;2023-05-22T01:35:00;96419.09;;;12.83;100.00
47366;BME280;33105;47.964;7.982;2023-05-22T01:39:07;96426.97;;;12.94;100.00
47366;BME280;33105;47.964;7.982;2023-05-22T01:47:01;96426.94;;;13.00;100.00
47366;BME280;33105;47.964;7.982;2023-05-22T01:50:48;96428.00;;;13.04;100.00
47366;BME280;33105;47.964;7.982;2023-05-22T01:58:44;96427.50;;;12.97;100.00
47366;BME280;33105;47.964;7.982;2023-05-22T02:02:19;96414.56;;;13.02;100.00
47366;BME280;33105;47.964;7.982;2023-05-22T02:05:24;96421.88;;;13.17;100.00
47366;BME280;33105;47.964;7.982;2023-05-22T02:08:56;96414.72;;;13.21;100.00
47366;BME280;33105;47.964;7.982;2023-05-22T02:16:28;96407.94;;;13.42;100.00
47366;BME280;33105;47.964;7.982;2023-05-22T02:33:59;96406.72;;;13.58;100.00
47366;BME280;33105;47.964;7.982;2023-05-22T02:51:51;96391.34;;;13.28;100.00
47366;BME280;33105;47.964;7.982;2023-05-22T03:04:41;96390.88;;;13.50;100.00
47366;BME280;33105;47.964;7.982;2023-05-22T03:27:43;96391.06;;;13.59;100.00
47366;BME280;33105;47.964;7.982;2023-05-22T03:31:50;96396.56;;;13.59;100.00
47366;BME280;33105;47.964;7.982;2023-05-22T03:35:10;96397.38;;;13.59;100.00
47366;BME280;33105;47.964;7.982;2023-05-22T03:39:12;96400.97;;;13.55;100.00
47366;BME280;33105;47.964;7.982;2023-05-22T03:42:47;96397.69;;;13.53;100.00
47366;BME280;33105;47.964;7.982;2023-05-22T03:46:59;96391.97;;;13.49;100.00
47366;BME280;33105;47.964;7.982;2023-05-22T03:50:10;96390.25;;;13.58;100.00
47366;BME280;33105;47.964;7.982;2023-05-22T04:31:23;96404.88;;;13.78;100.00
47366;BME280;33105;47.964;7.982;2023-05-22T04:43:53;96425.88;;;14.11;100.00
47366;BME280;33105;47.964;7.982;2023-05-22T04:47:31;96418.41;;;14.17;100.00
47366;BME280;33105;47.964;7.982;2023-05-22T04:50:37;96415.25;;;14.28;100.00
47366;BME280;33105;47.964;7.982;2023-05-22T04:54:04;96431.69;;;14.34;100.00
47366;BME280;33105;47.964;7.982;2023-05-22T04:58:01;96431.97;;;14.32;100.00
47366;BME280;33105;47.964;7.982;2023-05-22T05:10:13;96433.00;;;14.36;100.00
47366;BME280;33105;47.964;7.982;2023-05-22T05:13:54;96427.59;;;14.55;100.00
47366;BME280;33105;47.964;7.982;2023-05-22T05:28:07;96419.81;;;15.00;100.00
47366;BME280;33105;47.964;7.982;2023-05-22T05:31:52;96423.53;;;15.09;100.00
47366;BME280;33105;47.964;7.982;2023-05-22T05:38:58;96426.03;;;15.24;100.00
47366;BME280;33105;47.964;7.982;2023-05-22T05:46:55;96425.91;;;15.48;100.00
47366;BME280;33105;47.964;7.982;2023-05-22T05:49:59;96425.97;;;15.61;100.00
47366;BME280;33105;47.964;7.982;2023-05-22T05:53:51;96436.09;;;15.47;100.00
47366;BME280;33105;47.964;7.982;2023-05-22T05:57:02;96430.31;;;15.81;99.67
47366;BME280;33105;47.964;7.982;2023-05-22T06:01:00;96425.44;;;16.19;95.57
47366;BME280;33105;47.964;7.982;2023-05-22T06:04:14;96431.47;;;16.49;94.80
47366;BME280;33105;47.964;7.982;2023-05-22T06:07:46;96437.09;;;16.71;93.23
47366;BME280;33105;47.964;7.982;2023-05-22T06:10:50;96435.03;;;16.63;95.96
47366;BME280;33105;47.964;7.982;2023-05-22T06:14:13;96436.16;;;16.48;98.88
47366;BME280;33105;47.964;7.982;2023-05-22T06:17:15;96438.00;;;16.66;99.48
47366;BME280;33105;47.964;7.982;2023-05-22T06:24:28;96444.09;;;17.05;96.28
47366;BME280;33105;47.964;7.982;2023-05-22T06:27:31;96434.94;;;17.18;95.92
47366;BME280;33105;47.964;7.982;2023-05-22T06:30:34;96436.03;;;17.30;94.82
47366;BME280;33105;47.964;7.982;2023-05-22T06:33:36;96438.41;;;17.46;94.63
47366;BME280;33105;47.964;7.982;2023-05-22T06:36:39;96436.72;;;17.81;88.47
47366;BME280;33105;47.964;7.982;2023-05-22T06:39:41;96443.22;;;17.85;92.22
47366;BME280;33105;47.964;7.982;2023-05-22T06:42:57;96424.06;;;17.88;90.99
47366;BME280;33105;47.964;7.982;2023-05-22T06:46:09;96432.19;;;17.85;90.54
47366;BME280;33105;47.964;7.982;2023-05-22T06:49:21;96442.22;;;17.58;94.50
47366;BME280;33105;47.964;7.982;2023-05-22T06:52:28;96437.19;;;17.60;95.72
47366;BME280;33105;47.964;7.982;2023-05-22T06:55:32;96434.19;;;17.48;95.89
47366;BME280;33105;47.964;7.982;2023-05-22T06:58:42;96434.13;;;17.40;94.88
47366;BME280;33105;47.964;7.982;2023-05-22T07:01:45;96441.16;;;17.46;96.34
47366;BME280;33105;47.964;7.982;2023-05-22T07:04:50;96446.88;;;17.49;95.81
47366;BME280;33105;47.964;7.982;2023-05-22T07:08:04;96437.97;;;17.52;96.53
47366;BME280;33105;47.964;7.982;2023-05-22T07:11:06;96442.06;;;17.77;95.58
47366;BME280;33105;47.964;7.982;2023-05-22T07:14:09;96436.72;;;17.81;95.13
47366;BME280;33105;47.964;7.982;2023-05-22T07:17:14;96442.72;;;17.83;91.18
47366;BME280;33105;47.964;7.982;2023-05-22T07:20:20;96446.97;;;17.80;86.24
47366;BME280;33105;47.964;7.982;2023-05-22T07:23:47;96427.66;;;17.89;88.83
47366;BME280;33105;47.964;7.982;2023-05-22T07:26:49;96430.59;;;18.23;87.41
47366;BME280;33105;47.964;7.982;2023-05-22T07:29:51;96431.63;;;18.36;90.80
47366;BME280;33105;47.964;7.982;2023-05-22T07:32:53;96435.69;;;18.39;90.91
47366;BME280;33105;47.964;7.982;2023-05-22T07:35:55;96429.47;;;18.24;90.01
47366;BME280;33105;47.964;7.982;2023-05-22T07:38:57;96427.84;;;18.23;91.47
47366;BME280;33105;47.964;7.982;2023-05-22T07:41:59;96429.06;;;18.48;88.75
47366;BME280;33105;47.964;7.982;2023-05-22T07:45:01;96425.47;;;19.05;85.00
47366;BME280;33105;47.964;7.982;2023-05-22T07:48:04;96421.56;;;19.57;82.43
47366;BME280;33105;47.964;7.982;2023-05-22T07:51:10;96431.00;;;19.39;86.59
47366;BME280;33105;47.964;7.982;2023-05-22T07:54:18;96426.28;;;19.14;86.38
47366;BME280;33105;47.964;7.982;2023-05-22T07:57:23;96419.78;;;19.27;89.58
47366;BME280;33105;47.964;7.982;2023-05-22T08:00:29;96423.84;;;19.21;85.94
47366;BME280;33105;47.964;7.982;2023-05-22T08:03:31;96429.88;;;19.23;89.64
47366;BME280;33105;47.964;7.982;2023-05-22T08:06:34;96423.19;;;19.50;84.78
47366;BME280;33105;47.964;7.982;2023-05-22T08:09:36;96422.69;;;19.30;83.88
47366;BME280;33105;47.964;7.982;2023-05-22T08:12:38;96421.91;;;19.56;83.09
47366;BME280;33105;47.964;7.982;2023-05-22T08:15:39;96424.16;;;19.80;75.17
47366;BME280;33105;47.964;7.982;2023-05-22T08:18:42;96423.19;;;19.41;80.54
47366;BME280;33105;47.964;7.982;2023-05-22T08:21:44;96425.00;;;19.46;82.97
47366;BME280;33105;47.964;7.982;2023-05-22T08:24:46;96419.81;;;19.53;80.92
47366;BME280;33105;47.964;7.982;2023-05-22T08:27:47;96419.63;;;19.66;80.39
47366;BME280;33105;47.964;7.982;2023-05-22T08:30:49;96407.34;;;19.93;79.71
47366;BME280;33105;47.964;7.982;2023-05-22T08:33:51;96419.22;;;20.02;76.29
47366;BME280;33105;47.964;7.982;2023-05-22T08:36:52;96415.09;;;20.09;79.92
47366;BME280;33105;47.964;7.982;2023-05-22T08:39:55;96412.47;;;20.12;74.72
47366;BME280;33105;47.964;7.982;2023-05-22T08:42:58;96417.31;;;20.41;78.49
47366;BME280;33105;47.964;7.982;2023-05-22T08:46:03;96420.28;;;20.27;74.07
47366;BME280;33105;47.964;7.982;2023-05-22T08:49:07;96423.34;;;20.43;73.62
47366;BME280;33105;47.964;7.982;2023-05-22T08:52:13;96421.44;;;20.64;70.38
47366;BME280;33105;47.964;7.982;2023-05-22T08:55:21;96418.53;;;20.82;72.83
47366;BME280;33105;47.964;7.982;2023-05-22T08:58:51;96415.69;;;20.99;74.27
47366;BME280;33105;47.964;7.982;2023-05-22T09:03:28;96417.16;;;21.17;71.13
47366;BME280;33105;47.964;7.982;2023-05-22T09:07:16;96411.47;;;21.14;73.66
47366;BME280;33105;47.964;7.982;2023-05-22T09:11:28;96410.28;;;21.44;73.46
47366;BME280;33105;47.964;7.982;2023-05-22T09:15:11;96413.09;;;21.77;71.72
47366;BME280;33105;47.964;7.982;2023-05-22T09:19:27;96409.16;;;21.57;69.95
47366;BME280;33105;47.964;7.982;2023-05-22T09:27:29;96412.53;;;22.17;68.84
47366;BME280;33105;47.964;7.982;2023-05-22T09:34:41;96404.56;;;22.39;68.58
47366;BME280;33105;47.964;7.982;2023-05-22T09:43:23;96402.13;;;22.26;65.25
47366;BME280;33105;47.964;7.982;2023-05-22T09:47:08;96398.41;;;22.58;67.11
47366;BME280;33105;47.964;7.982;2023-05-22T09:51:09;96394.59;;;22.63;64.10
47366;BME280;33105;47.964;7.982;2023-05-22T09:58:36;96404.66;;;22.19;62.23
47366;BME280;33105;47.964;7.982;2023-05-22T10:02:29;96397.88;;;22.08;65.41
47366;BME280;33105;47.964;7.982;2023-05-22T10:06:24;96395.03;;;22.53;61.21
47366;BME280;33105;47.964;7.982;2023-05-22T10:14:42;96393.66;;;22.83;63.75
47366;BME280;33105;47.964;7.982;2023-05-22T10:26:07;96398.06;;;22.35;59.76
47366;BME280;33105;47.964;7.982;2023-05-22T10:33:42;96401.19;;;22.22;62.69
47366;BME280;33105;47.964;7.982;2023-05-22T10:41:45;96397.47;;;22.30;63.24
47366;BME280;33105;47.964;7.982;2023-05-22T10:50:11;96395.03;;;22.40;60.65
47366;BME280;33105;47.964;7.982;2023-05-22T10:54:43;96395.44;;;22.06;63.31
47366;BME280;33105;47.964;7.982;2023-05-22T10:58:11;96373.25;;;21.85;64.56
47366;BME280;33105;47.964;7.982;2023-05-22T11:06:02;96384.53;;;21.35;66.80
47366;BME280;33105;47.964;7.982;2023-05-22T11:17:12;96439.84;;;20.69;65.02
47366;BME280;33105;47.964;7.982;2023-05-22T11:20:25;96429.28;;;20.62;69.09
47366;BME280;33105;47.964;7.982;2023-05-22T11:23:32;96427.16;;;20.59;69.15
47366;BME280;33105;47.964;7.982;2023-05-22T11:30:37;96433.16;;;20.70;69.66
47366;BME280;33105;47.964;7.982;2023-05-22T11:33:43;96427.59;;;20.70;74.09
47366;BME280;33105;47.964;7.982;2023-05-22T11:42:11;96457.25;;;20.49;74.07
47366;BME280;33105;47.964;7.982;2023-05-22T11:50:44;96454.91;;;20.13;77.19
47366;BME280;33105;47.964;7.982;2023-05-22T11:54:07;96450.06;;;20.01;79.07
47366;BME280;33105;47.964;7.982;2023-05-22T11:57:08;96446.41;;;20.18;75.42
47366;BME280;33105;47.964;7.982;2023-05-22T12:00:13;96451.94;;;20.26;73.85
47366;BME280;33105;47.964;7.982;2023-05-22T12:03:37;96443.41;;;20.31;73.67
47366;BME280;33105;47.964;7.982;2023-05-22T12:06:43;96453.09;;;20.25;74.41
47366;BME280;33105;47.964;7.982;2023-05-22T12:09:46;96447.00;;;20.32;72.88
47366;BME280;33105;47.964;7.982;2023-05-22T12:12:48;96458.44;;;20.30;71.59
47366;BME280;33105;47.964;7.982;2023-05-22T12:15:52;96455.06;;;20.16;72.65
47366;BME280;33105;47.964;7.982;2023-05-22T12:18:54;96445.44;;;20.14;71.78
47366;BME280;33105;47.964;7.982;2023-05-22T12:21:57;96440.28;;;19.95;75.92
47366;BME280;33105;47.964;7.982;2023-05-22T12:25:00;96438.63;;;20.02;76.73
47366;BME280;33105;47.964;7.982;2023-05-22T12:28:05;96434.81;;;20.24;72.09
47366;BME280;33105;47.964;7.982;2023-05-22T12:34:51;96426.59;;;20.36;70.26
47366;BME280;33105;47.964;7.982;2023-05-22T12:37:56;96431.16;;;20.50;71.42
47366;BME280;33105;47.964;7.982;2023-05-22T12:41:01;96417.78;;;20.34;72.50
47366;BME280;33105;47.964;7.982;2023-05-22T12:44:16;96420.88;;;20.33;69.93
47366;BME280;33105;47.964;7.982;2023-05-22T12:47:21;96421.34;;;19.97;69.75
47366;BME280;33105;47.964;7.982;2023-05-22T12:50:23;96423.25;;;20.05;69.40
47366;BME280;33105;47.964;7.982;2023-05-22T12:53:28;96416.41;;;20.11;72.08
47366;BME280;33105;47.964;7.982;2023-05-22T12:56:38;96408.06;;;20.58;70.16
47366;BME280;33105;47.964;7.982;2023-05-22T13:00:36;96404.19;;;20.80;70.45
47366;BME280;33105;47.964;7.982;2023-05-22T13:03:52;96401.19;;;20.64;69.68
47366;BME280;33105;47.964;7.982;2023-05-22T13:07:14;96394.84;;;20.55;69.58
47366;BME280;33105;47.964;7.982;2023-05-22T13:10:57;96390.25;;;20.59;68.57
47366;BME280;33105;47.964;7.982;2023-05-22T13:32:31;96365.25;;;21.84;65.19
47366;BME280;33105;47.964;7.982;2023-05-22T13:41:04;96356.28;;;22.11;64.08
47366;BME280;33105;47.964;7.982;2023-05-22T13:45:21;96357.47;;;22.47;63.98
47366;BME280;33105;47.964;7.982;2023-05-22T13:49:03;96359.19;;;22.76;62.20
47366;BME280;33105;47.964;7.982;2023-05-22T13:53:04;96349.34;;;22.54;60.59
47366;BME280;33105;47.964;7.982;2023-05-22T14:01:52;96344.91;;;22.53;62.91
47366;BME280;33105;47.964;7.982;2023-05-22T14:06:09;96347.59;;;22.86;61.77
47366;BME280;33105;47.964;7.982;2023-05-22T14:14:15;96342.31;;;23.08;59.08
47366;BME280;33105;47.964;7.982;2023-05-22T14:17:28;96344.03;;;23.53;56.71
47366;BME280;33105;47.964;7.982;2023-05-22T14:21:23;96337.63;;;23.53;57.23
47366;BME280;33105;47.964;7.982;2023-05-22T14:25:43;96340.16;;;23.86;60.58
47366;BME280;33105;47.964;7.982;2023-05-22T14:29:06;96340.75;;;23.51;57.43
47366;BME280;33105;47.964;7.982;2023-05-22T14:32:48;96333.63;;;23.66;57.16
47366;BME280;33105;47.964;7.982;2023-05-22T14:41:06;96334.00;;;24.39;55.68
47366;BME280;33105;47.964;7.982;2023-05-22T14:45:00;96335.84;;;24.51;56.59
47366;BME280;33105;47.964;7.982;2023-05-22T14:48:16;96329.53;;;24.70;55.93
47366;BME280;33105;47.964;7.982;2023-05-22T14:51:22;96342.63;;;25.01;50.51
47366;BME280;33105;47.964;7.982;2023-05-22T14:54:35;96341.94;;;24.88;55.07
47366;BME280;33105;47.964;7.982;2023-05-22T14:57:47;96337.50;;;24.87;57.61
47366;BME280;33105;47.964;7.982;2023-05-22T15:01:14;96335.03;;;24.66;57.38
47366;BME280;33105;47.964;7.982;2023-05-22T15:05:01;96322.59;;;24.64;56.07
47366;BME280;33105;47.964;7.982;2023-05-22T15:08:25;96317.22;;;24.08;56.35
47366;BME280;33105;47.964;7.982;2023-05-22T15:19:32;96331.50;;;23.75;55.87
47366;BME280;33105;47.964;7.982;2023-05-22T15:32:23;96321.09;;;23.32;55.61
47366;BME280;33105;47.964;7.982;2023-05-22T15:39:02;96316.19;;;23.41;54.41
47366;BME280;33105;47.964;7.982;2023-05-22T15:45:46;96317.31;;;23.52;53.98
47366;BME280;33105;47.964;7.982;2023-05-22T15:50:05;96303.66;;;23.35;54.69
47366;BME280;33105;47.964;7.982;2023-05-22T15:53:09;96300.03;;;23.19;56.95
47366;BME280;33105;47.964;7.982;2023-05-22T15:56:11;96302.03;;;23.34;54.67
47366;BME280;33105;47.964;7.982;2023-05-22T15:59:19;96300.59;;;23.52;57.61
47366;BME280;33105;47.964;7.982;2023-05-22T16:03:48;96304.28;;;23.56;55.13
47366;BME280;33105;47.964;7.982;2023-05-22T16:06:38;96304.47;;;23.07;54.63
47366;BME280;33105;47.964;7.982;2023-05-22T16:09:41;96303.72;;;23.23;56.44
47366;BME280;33105;47.964;7.982;2023-05-22T16:12:57;96310.84;;;23.08;54.55
47366;BME280;33105;47.964;7.982;2023-05-22T16:16:18;96313.63;;;23.08;56.28
47366;BME280;33105;47.964;7.982;2023-05-22T16:19:31;96309.13;;;23.03;59.07
47366;BME280;33105;47.964;7.982;2023-05-22T16:22:45;96307.13;;;23.16;57.85
47366;BME280;33105;47.964;7.982;2023-05-22T16:25:59;96312.59;;;23.13;58.44
47366;BME280;33105;47.964;7.982;2023-05-22T16:29:02;96317.28;;;22.96;55.86
47366;BME280;33105;47.964;7.982;2023-05-22T16:32:27;96314.53;;;22.84;57.29
47366;BME280;33105;47.964;7.982;2023-05-22T16:36:00;96310.09;;;22.83;57.36
47366;BME280;33105;47.964;7.982;2023-05-22T16:39:39;96310.63;;;22.49;55.27
47366;BME280;33105;47.964;7.982;2023-05-22T16:42:53;96308.03;;;22.68;56.89
47366;BME280;33105;47.964;7.982;2023-05-22T16:46:00;96307.50;;;22.50;53.98
47366;BME280;33105;47.964;7.982;2023-05-22T16:49:11;96312.00;;;22.43;57.97
47366;BME280;33105;47.964;7.982;2023-05-22T16:52:51;96324.50;;;22.61;58.47
47366;BME280;33105;47.964;7.982;2023-05-22T16:56:14;96317.00;;;22.49;59.92
47366;BME280;33105;47.964;7.982;2023-05-22T16:59:24;96315.03;;;22.37;59.92
47366;BME280;33105;47.964;7.982;2023-05-22T17:02:43;96324.28;;;22.29;58.94
47366;BME280;33105;47.964;7.982;2023-05-22T17:07:15;96334.50;;;22.25;63.00
47366;BME280;33105;47.964;7.982;2023-05-22T17:21:07;96341.94;;;22.21;65.63
47366;BME280;33105;47.964;7.982;2023-05-22T17:25:12;96342.41;;;22.23;66.47
47366;BME280;33105;47.964;7.982;2023-05-22T17:28:25;96341.69;;;22.14;69.08
47366;BME280;33105;47.964;7.982;2023-05-22T17:31:27;96356.06;;;22.16;68.94
47366;BME280;33105;47.964;7.982;2023-05-22T17:38:17;96351.66;;;22.15;66.88
47366;BME280;33105;47.964;7.982;2023-05-22T17:42:29;96356.97;;;22.08;67.32
47366;BME280;33105;47.964;7.982;2023-05-22T17:46:15;96361.34;;;21.97;69.19
47366;BME280;33105;47.964;7.982;2023-05-22T17:50:13;96365.28;;;21.96;66.13
47366;BME280;33105;47.964;7.982;2023-05-22T17:57:22;96363.13;;;21.68;68.85
47366;BME280;33105;47.964;7.982;2023-05-22T18:01:02;96372.69;;;21.59;68.78
47366;BME280;33105;47.964;7.982;2023-05-22T18:04:09;96376.69;;;21.70;67.04
47366;BME280;33105;47.964;7.982;2023-05-22T18:07:46;96379.66;;;21.53;67.95
47366;BME280;33105;47.964;7.982;2023-05-22T18:19:26;96399.00;;;21.20;71.19
47366;BME280;33105;47.964;7.982;2023-05-22T18:26:17;96399.81;;;20.79;66.31
47366;BME280;33105;47.964;7.982;2023-05-22T18:29:27;96393.44;;;20.78;67.09
47366;BME280;33105;47.964;7.982;2023-05-22T18:32:42;96402.22;;;20.80;67.83
47366;BME280;33105;47.964;7.982;2023-05-22T18:35:47;96407.22;;;20.66;64.05
47366;BME280;33105;47.964;7.982;2023-05-22T18:38:51;96404.66;;;20.82;65.12
47366;BME280;33105;47.964;7.982;2023-05-22T18:41:56;96402.72;;;20.53;65.06
47366;BME280;33105;47.964;7.982;2023-05-22T18:44:58;96405.22;;;20.46;66.16
47366;BME280;33105;47.964;7.982;2023-05-22T18:48:00;96417.75;;;20.52;65.83
47366;BME280;33105;47.964;7.982;2023-05-22T18:51:04;96417.59;;;20.48;65.71
47366;BME280;33105;47.964;7.982;2023-05-22T18:54:05;96418.81;;;20.21;65.54
47366;BME280;33105;47.964;7.982;2023-05-22T18:57:07;96422.19;;;20.35;65.41
47366;BME280;33105;47.964;7.982;2023-05-22T19:00:09;96423.50;;;20.38;64.63
47366;BME280;33105;47.964;7.982;2023-05-22T19:03:12;96419.75;;;20.34;65.67
47366;BME280;33105;47.964;7.982;2023-05-22T19:06:13;96423.56;;;20.12;64.97
47366;BME280;33105;47.964;7.982;2023-05-22T19:09:15;96432.88;;;20.16;64.52
47366;BME280;33105;47.964;7.982;2023-05-22T19:12:16;96429.09;;;20.21;64.51
47366;BME280;33105;47.964;7.982;2023-05-22T19:15:19;96427.47;;;20.28;65.46
47366;BME280;33105;47.964;7.982;2023-05-22T19:18:41;96428.88;;;20.34;65.73
47366;BME280;33105;47.964;7.982;2023-05-22T19:21:44;96430.59;;;20.18;68.12
47366;BME280;33105;47.964;7.982;2023-05-22T19:24:47;96441.72;;;20.01;68.91
47366;BME280;33105;47.964;7.982;2023-05-22T19:27:48;96437.53;;;19.78;71.11
47366;BME280;33105;47.964;7.982;2023-05-22T19:30:50;96452.53;;;19.68;71.90
47366;BME280;33105;47.964;7.982;2023-05-22T19:33:53;96458.25;;;19.46;73.61
47366;BME280;33105;47.964;7.982;2023-05-22T19:36:54;96464.91;;;19.36;73.92
47366;BME280;33105;47.964;7.982;2023-05-22T19:40:01;96461.34;;;19.27;75.14
47366;BME280;33105;47.964;7.982;2023-05-22T19:43:02;96475.31;;;19.13;76.32
47366;BME280;33105;47.964;7.982;2023-05-22T19:46:04;96474.97;;;19.06;76.60
47366;BME280;33105;47.964;7.982;2023-05-22T19:49:05;96485.38;;;18.92;77.35
47366;BME280;33105;47.964;7.982;2023-05-22T19:52:07;96498.84;;;18.76;77.58
47366;BME280;33105;47.964;7.982;2023-05-22T19:55:08;96513.97;;;18.70;77.68
47366;BME280;33105;47.964;7.982;2023-05-22T19:58:10;96517.50;;;18.62;79.50
47366;BME280;33105;47.964;7.982;2023-05-22T20:01:11;96509.19;;;18.62;79.00
47366;BME280;33105;47.964;7.982;2023-05-22T20:04:13;96508.84;;;18.55;80.49
47366;BME280;33105;47.964;7.982;2023-05-22T20:07:15;96515.63;;;18.49;80.47
47366;BME280;33105;47.964;7.982;2023-05-22T20:10:17;96515.59;;;18.40;80.51
47366;BME280;33105;47.964;7.982;2023-05-22T20:13:18;96520.59;;;18.29;80.98
47366;BME280;33105;47.964;7.982;2023-05-22T20:16:21;96524.56;;;18.15;81.23
47366;BME280;33105;47.964;7.982;2023-05-22T20:19:24;96507.66;;;18.16;80.77
47366;BME280;33105;47.964;7.982;2023-05-22T20:22:26;96511.13;;;17.99;81.40
47366;BME280;33105;47.964;7.982;2023-05-22T20:25:28;96507.59;;;17.85;81.76
47366;BME280;33105;47.964;7.982;2023-05-22T20:28:29;96518.47;;;17.82;81.48
47366;BME280;33105;47.964;7.982;2023-05-22T20:31:31;96514.91;;;17.81;81.28
47366;BME280;33105;47.964;7.982;2023-05-22T20:34:33;96520.88;;;17.75;82.05
47366;BME280;33105;47.964;7.982;2023-05-22T20:37:34;96518.75;;;17.72;81.80
47366;BME280;33105;47.964;7.982;2023-05-22T20:40:37;96529.91;;;17.66;81.74
47366;BME280;33105;47.964;7.982;2023-05-22T20:43:40;96523.44;;;17.57;82.05
47366;BME280;33105;47.964;7.982;2023-05-22T20:46:46;96530.09;;;17.70;80.64
47366;BME280;33105;47.964;7.982;2023-05-22T20:49:47;96536.84;;;17.78;80.49
47366;BME280;33105;47.964;7.982;2023-05-22T20:52:49;96547.28;;;17.67;81.23
47366;BME280;33105;47.964;7.982;2023-05-22T20:55:52;96541.78;;;17.67;80.24
47366;BME280;33105;47.964;7.982;2023-05-22T20:58:54;96544.69;;;17.48;82.18
47366;BME280;33105;47.964;7.982;2023-05-22T21:01:56;96538.88;;;17.36;82.95
47366;BME280;33105;47.964;7.982;2023-05-22T21:05:01;96542.38;;;17.28;82.79
47366;BME280;33105;47.964;7.982;2023-05-22T21:08:04;96543.09;;;17.20;83.14
47366;BME280;33105;47.964;7.982;2023-05-22T21:11:09;96550.66;;;17.14;83.54
47366;BME280;33105;47.964;7.982;2023-05-22T21:14:16;96549.94;;;17.09;83.68
47366;BME280;33105;47.964;7.982;2023-05-22T21:17:18;96564.88;;;17.08;83.73
47366;BME280;33105;47.964;7.982;2023-05-22T21:20:19;96559.59;;;16.97;84.51
47366;BME280;33105;47.964;7.982;2023-05-22T21:23:24;96573.59;;;16.87;84.66
47366;BME280;33105;47.964;7.982;2023-05-22T21:27:15;96582.59;;;16.79;84.79
47366;BME280;33105;47.964;7.982;2023-05-22T21:30:17;96588.94;;;16.80;84.79
47366;BME280;33105;47.964;7.982;2023-05-22T21:34:12;96583.91;;;16.95;84.05
47366;BME280;33105;47.964;7.982;2023-05-22T21:37:20;96587.28;;;16.92;83.95
47366;BME280;33105;47.964;7.982;2023-05-22T21:40:24;96582.78;;;16.69;86.13
47366;BME280;33105;47.964;7.982;2023-05-22T21:43:36;96586.97;;;16.66;85.56
47366;BME280;33105;47.964;7.982;2023-05-22T21:52:00;96595.81;;;16.50;86.03
47366;BME280;33105;47.964;7.982;2023-05-22T22:00:33;96593.50;;;16.24;87.73
47366;BME280;33105;47.964;7.982;2023-05-22T22:04:51;96594.94;;;16.36;86.66
47366;BME280;33105;47.964;7.982;2023-05-22T22:08:32;96602.50;;;16.30;86.47
47366;BME280;33105;47.964;7.982;2023-05-22T22:29:25;96624.13;;;16.23;87.59
47366;BME280;33105;47.964;7.982;2023-05-22T22:33:26;96624.63;;;16.25;86.78
47366;BME280;33105;47.964;7.982;2023-05-22T22:37:27;96629.03;;;16.26;86.23
47366;BME280;33105;47.964;7.982;2023-05-22T22:50:37;96621.25;;;15.95;87.44
47366;BME280;33105;47.964;7.982;2023-05-22T22:54:49;96632.63;;;15.89;87.97
47366;BME280;33105;47.964;7.982;2023-05-22T22:58:18;96625.78;;;15.86;87.17
47366;BME280;33105;47.964;7.982;2023-05-22T23:01:23;96624.97;;;15.86;87.01
47366;BME280;33105;47.964;7.982;2023-05-22T23:04:25;96630.88;;;15.79;87.46
47366;BME280;33105;47.964;7.982;2023-05-22T23:08:31;96633.69;;;15.74;87.50
47366;BME280;33105;47.964;7.982;2023-05-22T23:12:24;96639.25;;;15.50;88.89
47366;BME280;33105;47.964;7.982;2023-05-22T23:21:12;96632.63;;;15.51;89.10
47366;BME280;33105;47.964;7.982;2023-05-22T23:43:01;96620.81;;;15.08;90.18
47366;BME280;33105;47.964;7.982;2023-05-22T23:46:33;96627.56;;;15.16;90.76
47366;BME280;33105;47.964;7.982;2023-05-22T23:50:45;96633.22;;;15.06;90.63
